Oparino, Russia
Current Conditions -  °F | °C
As of 6:00 PM on Tuesday 21 Oct 2014 (Local Time) from UUYY Reporting Station
Clear Clear  
Wind Chill:   Ceiling: Unl
Heat Index: 14°   Visibility: 6mi
Dew Point:   Wind: 4mph
Humidity: 79%   Direction: NA
Pressure: 29.88"   Gusts: NA
Location:  59.85°N, 48.28°E
Report Text: UUYY 211400Z VRB02MPS CAVOK M10/M13 Q1012 NOSIG 01CLRD61 RMKQFE750/1000
Loading
Personal Weather Stations






























Interactive Weather Map
Tropical Storm Tracking
New forecast layout! Learn more

10-Day Weather Forecast

Advertisements
Track Severe Weather on mobile